sensor_id;sensor_type;location;lat;lon;timestamp;temperature;humidity
21047;DHT22;10682;50.874;3.656;2022-08-19T00:01:55;18.60;99.90
21047;DHT22;10682;50.874;3.656;2022-08-19T00:04:28;18.60;99.90
21047;DHT22;10682;50.874;3.656;2022-08-19T00:06:57;18.50;99.90
21047;DHT22;10682;50.874;3.656;2022-08-19T00:09:26;18.50;99.90
21047;DHT22;10682;50.874;3.656;2022-08-19T00:11:54;18.40;99.90
21047;DHT22;10682;50.874;3.656;2022-08-19T00:14:24;18.30;99.90
21047;DHT22;10682;50.874;3.656;2022-08-19T00:16:52;18.30;99.90
21047;DHT22;10682;50.874;3.656;2022-08-19T00:19:21;18.20;99.90
21047;DHT22;10682;50.874;3.656;2022-08-19T00:21:50;18.20;99.90
21047;DHT22;10682;50.874;3.656;2022-08-19T00:24:17;18.20;99.90
21047;DHT22;10682;50.874;3.656;2022-08-19T00:26:45;18.20;99.90
21047;DHT22;10682;50.874;3.656;2022-08-19T00:29:17;18.20;99.90
21047;DHT22;10682;50.874;3.656;2022-08-19T00:31:45;18.20;99.90
21047;DHT22;10682;50.874;3.656;2022-08-19T00:34:14;18.20;99.90
21047;DHT22;10682;50.874;3.656;2022-08-19T00:36:42;18.10;99.90
21047;DHT22;10682;50.874;3.656;2022-08-19T00:39:10;18.00;99.90
21047;DHT22;10682;50.874;3.656;2022-08-19T00:41:39;18.00;99.90
21047;DHT22;10682;50.874;3.656;2022-08-19T00:44:27;18.00;99.90
21047;DHT22;10682;50.874;3.656;2022-08-19T00:46:57;18.00;99.90
21047;DHT22;10682;50.874;3.656;2022-08-19T00:49:39;18.00;99.90
21047;DHT22;10682;50.874;3.656;2022-08-19T00:52:11;18.00;99.90
21047;DHT22;10682;50.874;3.656;2022-08-19T00:54:42;18.10;99.90
21047;DHT22;10682;50.874;3.656;2022-08-19T00:57:12;18.10;99.90
21047;DHT22;10682;50.874;3.656;2022-08-19T00:59:44;18.10;99.90
21047;DHT22;10682;50.874;3.656;2022-08-19T01:02:28;18.10;99.90
21047;DHT22;10682;50.874;3.656;2022-08-19T01:04:56;18.10;99.90
21047;DHT22;10682;50.874;3.656;2022-08-19T01:07:23;18.10;99.90
21047;DHT22;10682;50.874;3.656;2022-08-19T01:09:51;18.00;99.90
21047;DHT22;10682;50.874;3.656;2022-08-19T01:12:18;18.00;99.90
21047;DHT22;10682;50.874;3.656;2022-08-19T01:14:46;18.10;99.90
21047;DHT22;10682;50.874;3.656;2022-08-19T01:17:15;18.00;99.90
21047;DHT22;10682;50.874;3.656;2022-08-19T01:19:43;17.90;99.90
21047;DHT22;10682;50.874;3.656;2022-08-19T01:22:48;17.90;99.90
21047;DHT22;10682;50.874;3.656;2022-08-19T01:25:22;17.90;99.90
21047;DHT22;10682;50.874;3.656;2022-08-19T01:27:52;17.80;99.90
21047;DHT22;10682;50.874;3.656;2022-08-19T01:30:24;17.80;99.90
21047;DHT22;10682;50.874;3.656;2022-08-19T01:32:52;17.70;99.90
21047;DHT22;10682;50.874;3.656;2022-08-19T01:35:21;17.70;99.90
21047;DHT22;10682;50.874;3.656;2022-08-19T01:37:53;17.70;99.90
21047;DHT22;10682;50.874;3.656;2022-08-19T01:40:25;17.70;99.90
21047;DHT22;10682;50.874;3.656;2022-08-19T01:42:54;17.70;99.90
21047;DHT22;10682;50.874;3.656;2022-08-19T01:45:24;17.60;99.90
21047;DHT22;10682;50.874;3.656;2022-08-19T01:47:52;17.60;99.90
21047;DHT22;10682;50.874;3.656;2022-08-19T01:50:29;17.60;99.90
21047;DHT22;10682;50.874;3.656;2022-08-19T01:52:59;17.60;99.90
21047;DHT22;10682;50.874;3.656;2022-08-19T01:55:35;17.60;99.90
21047;DHT22;10682;50.874;3.656;2022-08-19T01:58:12;17.60;99.90
21047;DHT22;10682;50.874;3.656;2022-08-19T02:00:42;17.60;99.90
21047;DHT22;10682;50.874;3.656;2022-08-19T02:03:10;17.50;99.90
21047;DHT22;10682;50.874;3.656;2022-08-19T02:05:39;17.50;99.90
21047;DHT22;10682;50.874;3.656;2022-08-19T02:08:07;17.50;99.90
21047;DHT22;10682;50.874;3.656;2022-08-19T02:10:39;17.50;99.90
21047;DHT22;10682;50.874;3.656;2022-08-19T02:13:08;17.50;99.90
21047;DHT22;10682;50.874;3.656;2022-08-19T02:15:36;17.40;99.90
21047;DHT22;10682;50.874;3.656;2022-08-19T02:18:03;17.40;99.90
21047;DHT22;10682;50.874;3.656;2022-08-19T02:20:31;17.40;99.90
21047;DHT22;10682;50.874;3.656;2022-08-19T02:22:58;17.30;99.90
21047;DHT22;10682;50.874;3.656;2022-08-19T02:25:25;17.30;99.90
21047;DHT22;10682;50.874;3.656;2022-08-19T02:27:52;17.20;99.90
21047;DHT22;10682;50.874;3.656;2022-08-19T02:30:19;17.20;99.90
21047;DHT22;10682;50.874;3.656;2022-08-19T02:32:47;17.20;99.90
21047;DHT22;10682;50.874;3.656;2022-08-19T02:35:14;17.20;99.90
21047;DHT22;10682;50.874;3.656;2022-08-19T02:37:42;17.10;99.90
21047;DHT22;10682;50.874;3.656;2022-08-19T02:40:30;17.10;99.90
21047;DHT22;10682;50.874;3.656;2022-08-19T02:43:06;17.10;99.90
21047;DHT22;10682;50.874;3.656;2022-08-19T02:45:36;17.10;99.90
21047;DHT22;10682;50.874;3.656;2022-08-19T02:48:07;17.10;99.90
21047;DHT22;10682;50.874;3.656;2022-08-19T02:50:48;17.10;99.90
21047;DHT22;10682;50.874;3.656;2022-08-19T02:53:24;17.00;99.90
21047;DHT22;10682;50.874;3.656;2022-08-19T02:55:53;17.00;99.90
21047;DHT22;10682;50.874;3.656;2022-08-19T02:58:21;17.00;99.90
21047;DHT22;10682;50.874;3.656;2022-08-19T03:00:53;16.90;99.90
21047;DHT22;10682;50.874;3.656;2022-08-19T03:03:21;17.00;99.90
21047;DHT22;10682;50.874;3.656;2022-08-19T03:05:49;17.00;99.90
21047;DHT22;10682;50.874;3.656;2022-08-19T03:08:23;17.00;99.90
21047;DHT22;10682;50.874;3.656;2022-08-19T03:10:52;17.00;99.90
21047;DHT22;10682;50.874;3.656;2022-08-19T03:13:19;17.00;99.90
21047;DHT22;10682;50.874;3.656;2022-08-19T03:15:47;17.00;99.90
21047;DHT22;10682;50.874;3.656;2022-08-19T03:18:15;17.00;99.90
21047;DHT22;10682;50.874;3.656;2022-08-19T03:20:46;17.00;99.90
21047;DHT22;10682;50.874;3.656;2022-08-19T03:23:16;17.00;99.90
21047;DHT22;10682;50.874;3.656;2022-08-19T03:25:46;17.00;99.90
21047;DHT22;10682;50.874;3.656;2022-08-19T03:28:34;16.90;99.90
21047;DHT22;10682;50.874;3.656;2022-08-19T03:31:10;16.90;99.90
21047;DHT22;10682;50.874;3.656;2022-08-19T03:33:58;16.90;99.90
21047;DHT22;10682;50.874;3.656;2022-08-19T03:36:28;17.00;99.90
21047;DHT22;10682;50.874;3.656;2022-08-19T03:38:59;16.90;99.90
21047;DHT22;10682;50.874;3.656;2022-08-19T03:41:36;17.00;99.90
21047;DHT22;10682;50.874;3.656;2022-08-19T03:44:13;17.00;99.90
21047;DHT22;10682;50.874;3.656;2022-08-19T03:46:44;17.00;99.90
21047;DHT22;10682;50.874;3.656;2022-08-19T03:49:20;17.00;99.90
21047;DHT22;10682;50.874;3.656;2022-08-19T03:51:56;17.10;99.90
21047;DHT22;10682;50.874;3.656;2022-08-19T03:54:27;17.10;99.90
21047;DHT22;10682;50.874;3.656;2022-08-19T03:56:56;17.10;99.90
21047;DHT22;10682;50.874;3.656;2022-08-19T03:59:27;17.10;99.90
21047;DHT22;10682;50.874;3.656;2022-08-19T04:02:08;17.10;99.90
21047;DHT22;10682;50.874;3.656;2022-08-19T04:04:42;17.10;99.90
21047;DHT22;10682;50.874;3.656;2022-08-19T04:07:12;17.10;99.90
21047;DHT22;10682;50.874;3.656;2022-08-19T04:09:44;17.10;99.90
21047;DHT22;10682;50.874;3.656;2022-08-19T04:12:14;17.10;99.90
21047;DHT22;10682;50.874;3.656;2022-08-19T04:14:45;17.10;99.90
21047;DHT22;10682;50.874;3.656;2022-08-19T04:17:12;17.10;99.90
21047;DHT22;10682;50.874;3.656;2022-08-19T04:19:40;17.10;99.90
21047;DHT22;10682;50.874;3.656;2022-08-19T04:22:09;17.10;99.90
21047;DHT22;10682;50.874;3.656;2022-08-19T04:24:37;17.00;99.90
21047;DHT22;10682;50.874;3.656;2022-08-19T04:27:05;17.00;99.90
21047;DHT22;10682;50.874;3.656;2022-08-19T04:29:33;17.00;99.90
21047;DHT22;10682;50.874;3.656;2022-08-19T04:32:01;17.00;99.90
21047;DHT22;10682;50.874;3.656;2022-08-19T04:34:35;17.00;99.90
21047;DHT22;10682;50.874;3.656;2022-08-19T04:37:23;17.00;99.90
21047;DHT22;10682;50.874;3.656;2022-08-19T04:39:51;17.00;99.90
21047;DHT22;10682;50.874;3.656;2022-08-19T04:42:36;17.00;99.90
21047;DHT22;10682;50.874;3.656;2022-08-19T04:45:08;17.00;99.90
21047;DHT22;10682;50.874;3.656;2022-08-19T04:47:39;17.10;99.90
21047;DHT22;10682;50.874;3.656;2022-08-19T04:50:25;17.10;99.90
21047;DHT22;10682;50.874;3.656;2022-08-19T04:52:52;17.10;99.90
21047;DHT22;10682;50.874;3.656;2022-08-19T04:55:20;17.20;99.90
21047;DHT22;10682;50.874;3.656;2022-08-19T04:57:47;17.20;99.90
21047;DHT22;10682;50.874;3.656;2022-08-19T05:00:14;17.20;99.90
21047;DHT22;10682;50.874;3.656;2022-08-19T05:02:41;17.20;99.90
21047;DHT22;10682;50.874;3.656;2022-08-19T05:05:09;17.20;99.90
21047;DHT22;10682;50.874;3.656;2022-08-19T05:07:36;17.20;99.90
21047;DHT22;10682;50.874;3.656;2022-08-19T05:10:05;17.20;99.90
21047;DHT22;10682;50.874;3.656;2022-08-19T05:12:33;17.30;99.90
21047;DHT22;10682;50.874;3.656;2022-08-19T05:15:01;17.30;99.90
21047;DHT22;10682;50.874;3.656;2022-08-19T05:17:30;17.40;99.90
21047;DHT22;10682;50.874;3.656;2022-08-19T05:20:05;17.50;99.90
21047;DHT22;10682;50.874;3.656;2022-08-19T05:22:52;17.60;99.90
21047;DHT22;10682;50.874;3.656;2022-08-19T05:25:20;17.70;99.90
21047;DHT22;10682;50.874;3.656;2022-08-19T05:27:48;17.80;99.90
21047;DHT22;10682;50.874;3.656;2022-08-19T05:30:16;17.90;99.90
21047;DHT22;10682;50.874;3.656;2022-08-19T05:32:43;18.00;99.90
21047;DHT22;10682;50.874;3.656;2022-08-19T05:35:11;18.10;99.90
21047;DHT22;10682;50.874;3.656;2022-08-19T05:37:39;18.20;99.90
21047;DHT22;10682;50.874;3.656;2022-08-19T05:40:09;18.30;99.90
21047;DHT22;10682;50.874;3.656;2022-08-19T05:42:37;18.30;99.90
21047;DHT22;10682;50.874;3.656;2022-08-19T05:45:06;18.30;99.90
21047;DHT22;10682;50.874;3.656;2022-08-19T05:47:33;18.40;99.90
21047;DHT22;10682;50.874;3.656;2022-08-19T05:50:07;18.40;99.90
21047;DHT22;10682;50.874;3.656;2022-08-19T05:52:37;18.40;99.90
21047;DHT22;10682;50.874;3.656;2022-08-19T05:55:09;18.50;99.90
21047;DHT22;10682;50.874;3.656;2022-08-19T05:57:37;18.50;99.90
21047;DHT22;10682;50.874;3.656;2022-08-19T06:00:05;18.70;99.90
21047;DHT22;10682;50.874;3.656;2022-08-19T06:02:37;18.70;99.90
21047;DHT22;10682;50.874;3.656;2022-08-19T06:05:05;18.80;99.90
21047;DHT22;10682;50.874;3.656;2022-08-19T06:07:33;18.90;99.90
21047;DHT22;10682;50.874;3.656;2022-08-19T06:10:08;18.90;99.90
21047;DHT22;10682;50.874;3.656;2022-08-19T06:12:36;18.80;99.90
21047;DHT22;10682;50.874;3.656;2022-08-19T06:15:12;18.90;99.90
21047;DHT22;10682;50.874;3.656;2022-08-19T06:17:41;18.90;99.90
21047;DHT22;10682;50.874;3.656;2022-08-19T06:20:12;18.90;99.90
21047;DHT22;10682;50.874;3.656;2022-08-19T06:22:43;19.00;99.90
21047;DHT22;10682;50.874;3.656;2022-08-19T06:25:13;19.10;99.90
21047;DHT22;10682;50.874;3.656;2022-08-19T06:27:41;19.20;99.90
21047;DHT22;10682;50.874;3.656;2022-08-19T06:30:28;19.30;99.90
21047;DHT22;10682;50.874;3.656;2022-08-19T06:32:55;19.20;99.90
21047;DHT22;10682;50.874;3.656;2022-08-19T06:35:22;19.30;99.90
21047;DHT22;10682;50.874;3.656;2022-08-19T06:37:49;19.30;99.90
21047;DHT22;10682;50.874;3.656;2022-08-19T06:40:16;19.40;99.90
21047;DHT22;10682;50.874;3.656;2022-08-19T06:42:43;19.40;99.90
21047;DHT22;10682;50.874;3.656;2022-08-19T06:45:24;19.50;99.90
21047;DHT22;10682;50.874;3.656;2022-08-19T06:48:01;19.60;99.90
21047;DHT22;10682;50.874;3.656;2022-08-19T06:50:28;19.70;99.90
21047;DHT22;10682;50.874;3.656;2022-08-19T06:52:55;19.70;99.90
21047;DHT22;10682;50.874;3.656;2022-08-19T06:55:26;19.60;99.90
21047;DHT22;10682;50.874;3.656;2022-08-19T06:58:02;19.70;99.90
21047;DHT22;10682;50.874;3.656;2022-08-19T07:00:30;19.70;99.90
21047;DHT22;10682;50.874;3.656;2022-08-19T07:03:02;19.70;99.90
21047;DHT22;10682;50.874;3.656;2022-08-19T07:05:39;19.70;99.90
21047;DHT22;10682;50.874;3.656;2022-08-19T07:08:11;19.80;99.90
21047;DHT22;10682;50.874;3.656;2022-08-19T07:10:43;19.90;99.90
21047;DHT22;10682;50.874;3.656;2022-08-19T07:13:11;20.00;99.90
21047;DHT22;10682;50.874;3.656;2022-08-19T07:15:38;20.00;99.90
21047;DHT22;10682;50.874;3.656;2022-08-19T07:18:05;20.20;99.90
21047;DHT22;10682;50.874;3.656;2022-08-19T07:20:37;20.20;99.90
21047;DHT22;10682;50.874;3.656;2022-08-19T07:23:07;20.20;99.90
21047;DHT22;10682;50.874;3.656;2022-08-19T07:25:41;20.20;99.90
21047;DHT22;10682;50.874;3.656;2022-08-19T07:28:09;20.10;99.90
21047;DHT22;10682;50.874;3.656;2022-08-19T07:30:50;20.00;99.90
21047;DHT22;10682;50.874;3.656;2022-08-19T07:33:18;20.00;99.90
21047;DHT22;10682;50.874;3.656;2022-08-19T07:35:45;20.10;99.90
21047;DHT22;10682;50.874;3.656;2022-08-19T07:38:12;20.10;99.90
21047;DHT22;10682;50.874;3.656;2022-08-19T07:40:39;20.20;99.90
21047;DHT22;10682;50.874;3.656;2022-08-19T07:43:13;20.20;99.90
21047;DHT22;10682;50.874;3.656;2022-08-19T07:45:44;20.30;99.90
21047;DHT22;10682;50.874;3.656;2022-08-19T07:48:11;20.40;99.90
21047;DHT22;10682;50.874;3.656;2022-08-19T07:50:38;20.50;99.90
21047;DHT22;10682;50.874;3.656;2022-08-19T07:53:05;20.50;99.90
21047;DHT22;10682;50.874;3.656;2022-08-19T07:55:32;20.60;99.90
21047;DHT22;10682;50.874;3.656;2022-08-19T07:58:10;20.60;99.90
21047;DHT22;10682;50.874;3.656;2022-08-19T08:00:39;20.60;99.90
21047;DHT22;10682;50.874;3.656;2022-08-19T08:03:06;20.60;99.90
21047;DHT22;10682;50.874;3.656;2022-08-19T08:05:35;20.70;99.90
21047;DHT22;10682;50.874;3.656;2022-08-19T08:08:20;20.80;99.90
21047;DHT22;10682;50.874;3.656;2022-08-19T08:11:15;20.80;99.90
21047;DHT22;10682;50.874;3.656;2022-08-19T08:13:47;20.80;99.90
21047;DHT22;10682;50.874;3.656;2022-08-19T08:16:37;20.80;99.90
21047;DHT22;10682;50.874;3.656;2022-08-19T08:19:06;20.80;99.90
21047;DHT22;10682;50.874;3.656;2022-08-19T08:21:49;20.80;99.90
21047;DHT22;10682;50.874;3.656;2022-08-19T08:24:17;20.90;99.90
21047;DHT22;10682;50.874;3.656;2022-08-19T08:26:44;20.80;99.90
21047;DHT22;10682;50.874;3.656;2022-08-19T08:29:17;20.80;99.90
21047;DHT22;10682;50.874;3.656;2022-08-19T08:31:47;20.70;99.90
21047;DHT22;10682;50.874;3.656;2022-08-19T08:34:24;20.70;99.90
21047;DHT22;10682;50.874;3.656;2022-08-19T08:36:51;20.70;99.90
21047;DHT22;10682;50.874;3.656;2022-08-19T08:39:20;20.60;99.90
21047;DHT22;10682;50.874;3.656;2022-08-19T08:42:16;20.60;99.90
21047;DHT22;10682;50.874;3.656;2022-08-19T08:45:00;20.60;99.90
21047;DHT22;10682;50.874;3.656;2022-08-19T08:47:35;20.70;99.90
21047;DHT22;10682;50.874;3.656;2022-08-19T08:50:13;20.70;99.90
21047;DHT22;10682;50.874;3.656;2022-08-19T08:52:48;20.70;99.90
21047;DHT22;10682;50.874;3.656;2022-08-19T08:55:24;20.70;99.90
21047;DHT22;10682;50.874;3.656;2022-08-19T08:58:21;20.70;99.90
21047;DHT22;10682;50.874;3.656;2022-08-19T09:00:53;20.60;99.90
21047;DHT22;10682;50.874;3.656;2022-08-19T09:03:24;20.60;99.90
21047;DHT22;10682;50.874;3.656;2022-08-19T09:06:00;20.70;99.90
21047;DHT22;10682;50.874;3.656;2022-08-19T09:17:24;20.90;99.90
21047;DHT22;10682;50.874;3.656;2022-08-19T09:19:58;21.00;99.90
21047;DHT22;10682;50.874;3.656;2022-08-19T09:22:36;21.00;99.90
21047;DHT22;10682;50.874;3.656;2022-08-19T09:25:06;21.10;99.90
21047;DHT22;10682;50.874;3.656;2022-08-19T09:27:36;21.10;99.90
21047;DHT22;10682;50.874;3.656;2022-08-19T09:30:18;21.20;99.90
21047;DHT22;10682;50.874;3.656;2022-08-19T09:32:48;21.30;99.90
21047;DHT22;10682;50.874;3.656;2022-08-19T09:35:23;21.30;99.90
21047;DHT22;10682;50.874;3.656;2022-08-19T09:37:54;21.30;99.90
21047;DHT22;10682;50.874;3.656;2022-08-19T09:40:27;21.40;99.90
21047;DHT22;10682;50.874;3.656;2022-08-19T09:42:56;21.40;99.90
21047;DHT22;10682;50.874;3.656;2022-08-19T09:45:35;21.60;99.90
21047;DHT22;10682;50.874;3.656;2022-08-19T09:48:02;21.80;99.90
21047;DHT22;10682;50.874;3.656;2022-08-19T09:50:30;22.00;99.90
21047;DHT22;10682;50.874;3.656;2022-08-19T09:53:00;22.20;99.90
21047;DHT22;10682;50.874;3.656;2022-08-19T09:55:27;22.50;99.90
21047;DHT22;10682;50.874;3.656;2022-08-19T09:58:00;22.60;99.90
21047;DHT22;10682;50.874;3.656;2022-08-19T10:00:28;22.70;99.90
21047;DHT22;10682;50.874;3.656;2022-08-19T10:02:55;22.80;99.90
21047;DHT22;10682;50.874;3.656;2022-08-19T10:05:22;23.00;99.90
21047;DHT22;10682;50.874;3.656;2022-08-19T10:08:09;22.90;99.90
21047;DHT22;10682;50.874;3.656;2022-08-19T10:10:43;22.80;99.90
21047;DHT22;10682;50.874;3.656;2022-08-19T10:13:15;22.70;99.90
21047;DHT22;10682;50.874;3.656;2022-08-19T10:15:43;22.50;99.90
21047;DHT22;10682;50.874;3.656;2022-08-19T10:18:15;22.40;99.90
21047;DHT22;10682;50.874;3.656;2022-08-19T10:20:45;22.40;99.90
21047;DHT22;10682;50.874;3.656;2022-08-19T10:23:18;22.30;99.90
21047;DHT22;10682;50.874;3.656;2022-08-19T10:25:47;22.40;99.90
21047;DHT22;10682;50.874;3.656;2022-08-19T10:28:14;22.50;99.90
21047;DHT22;10682;50.874;3.656;2022-08-19T10:30:45;22.70;99.90
21047;DHT22;10682;50.874;3.656;2022-08-19T10:33:13;22.80;99.90
21047;DHT22;10682;50.874;3.656;2022-08-19T10:36:07;22.80;99.90
21047;DHT22;10682;50.874;3.656;2022-08-19T10:38:37;22.80;99.90
21047;DHT22;10682;50.874;3.656;2022-08-19T10:41:28;22.90;99.90
21047;DHT22;10682;50.874;3.656;2022-08-19T10:44:01;22.90;99.90
21047;DHT22;10682;50.874;3.656;2022-08-19T10:46:34;22.90;99.90
21047;DHT22;10682;50.874;3.656;2022-08-19T10:49:04;22.70;99.90
21047;DHT22;10682;50.874;3.656;2022-08-19T10:51:32;22.60;99.90
21047;DHT22;10682;50.874;3.656;2022-08-19T10:54:19;22.50;99.90
21047;DHT22;10682;50.874;3.656;2022-08-19T10:56:58;22.50;99.90
21047;DHT22;10682;50.874;3.656;2022-08-19T10:59:28;22.50;99.90
21047;DHT22;10682;50.874;3.656;2022-08-19T11:02:03;22.60;99.90
21047;DHT22;10682;50.874;3.656;2022-08-19T11:04:31;22.70;99.90
21047;DHT22;10682;50.874;3.656;2022-08-19T11:07:01;22.60;99.90
21047;DHT22;10682;50.874;3.656;2022-08-19T11:09:29;22.70;99.90
21047;DHT22;10682;50.874;3.656;2022-08-19T11:12:00;22.60;99.90
21047;DHT22;10682;50.874;3.656;2022-08-19T11:14:30;22.80;99.90
21047;DHT22;10682;50.874;3.656;2022-08-19T11:17:00;22.90;99.90
21047;DHT22;10682;50.874;3.656;2022-08-19T11:19:28;23.10;99.90
21047;DHT22;10682;50.874;3.656;2022-08-19T11:21:56;23.00;99.90
21047;DHT22;10682;50.874;3.656;2022-08-19T11:24:25;23.00;99.90
21047;DHT22;10682;50.874;3.656;2022-08-19T11:26:55;22.90;99.90
21047;DHT22;10682;50.874;3.656;2022-08-19T11:29:29;22.90;99.90
21047;DHT22;10682;50.874;3.656;2022-08-19T11:31:56;22.90;99.90
21047;DHT22;10682;50.874;3.656;2022-08-19T11:34:25;22.80;99.90
21047;DHT22;10682;50.874;3.656;2022-08-19T11:36:55;22.70;99.90
21047;DHT22;10682;50.874;3.656;2022-08-19T11:39:29;22.70;99.90
21047;DHT22;10682;50.874;3.656;2022-08-19T11:42:00;22.70;99.90
21047;DHT22;10682;50.874;3.656;2022-08-19T11:44:29;22.70;99.90
21047;DHT22;10682;50.874;3.656;2022-08-19T11:46:57;22.60;99.90
21047;DHT22;10682;50.874;3.656;2022-08-19T11:49:34;22.70;99.90
21047;DHT22;10682;50.874;3.656;2022-08-19T11:52:02;22.60;99.90
21047;DHT22;10682;50.874;3.656;2022-08-19T11:54:29;22.50;99.90
21047;DHT22;10682;50.874;3.656;2022-08-19T11:56:57;22.50;99.90
21047;DHT22;10682;50.874;3.656;2022-08-19T11:59:24;22.60;99.90
21047;DHT22;10682;50.874;3.656;2022-08-19T12:01:53;22.60;99.90
21047;DHT22;10682;50.874;3.656;2022-08-19T12:04:20;22.70;99.90
21047;DHT22;10682;50.874;3.656;2022-08-19T12:06:47;22.70;99.90
21047;DHT22;10682;50.874;3.656;2022-08-19T12:09:14;22.80;99.90
21047;DHT22;10682;50.874;3.656;2022-08-19T12:11:41;22.80;99.90
21047;DHT22;10682;50.874;3.656;2022-08-19T12:14:10;22.70;99.90
21047;DHT22;10682;50.874;3.656;2022-08-19T12:16:41;22.70;99.90
21047;DHT22;10682;50.874;3.656;2022-08-19T12:19:16;22.70;99.90
21047;DHT22;10682;50.874;3.656;2022-08-19T12:21:48;22.80;99.90
21047;DHT22;10682;50.874;3.656;2022-08-19T12:24:16;22.90;99.90
21047;DHT22;10682;50.874;3.656;2022-08-19T12:26:49;23.30;99.90
21047;DHT22;10682;50.874;3.656;2022-08-19T12:29:19;23.50;99.90
21047;DHT22;10682;50.874;3.656;2022-08-19T12:31:50;23.80;99.90
21047;DHT22;10682;50.874;3.656;2022-08-19T12:34:17;24.00;99.90
21047;DHT22;10682;50.874;3.656;2022-08-19T12:36:46;24.10;99.90
21047;DHT22;10682;50.874;3.656;2022-08-19T12:39:16;24.20;99.90
21047;DHT22;10682;50.874;3.656;2022-08-19T12:41:42;24.40;99.90
21047;DHT22;10682;50.874;3.656;2022-08-19T12:44:24;24.30;99.90
21047;DHT22;10682;50.874;3.656;2022-08-19T12:47:02;24.10;99.90
21047;DHT22;10682;50.874;3.656;2022-08-19T12:49:33;23.90;99.90
21047;DHT22;10682;50.874;3.656;2022-08-19T12:52:21;23.70;99.90
21047;DHT22;10682;50.874;3.656;2022-08-19T12:54:50;23.30;99.90
21047;DHT22;10682;50.874;3.656;2022-08-19T12:57:21;22.80;99.90
21047;DHT22;10682;50.874;3.656;2022-08-19T13:00:00;22.50;99.90
21047;DHT22;10682;50.874;3.656;2022-08-19T13:02:45;22.40;99.90
21047;DHT22;10682;50.874;3.656;2022-08-19T13:05:19;22.30;99.90
21047;DHT22;10682;50.874;3.656;2022-08-19T13:07:50;22.20;99.90
21047;DHT22;10682;50.874;3.656;2022-08-19T13:10:20;22.20;99.90
21047;DHT22;10682;50.874;3.656;2022-08-19T13:12:50;22.20;99.90
21047;DHT22;10682;50.874;3.656;2022-08-19T13:15:19;22.30;99.90
21047;DHT22;10682;50.874;3.656;2022-08-19T13:17:51;22.50;99.90
21047;DHT22;10682;50.874;3.656;2022-08-19T13:20:20;23.00;99.90
21047;DHT22;10682;50.874;3.656;2022-08-19T13:22:48;23.30;99.90
21047;DHT22;10682;50.874;3.656;2022-08-19T13:25:16;23.60;99.90
21047;DHT22;10682;50.874;3.656;2022-08-19T13:27:45;24.10;99.90
21047;DHT22;10682;50.874;3.656;2022-08-19T13:30:15;24.30;99.90
21047;DHT22;10682;50.874;3.656;2022-08-19T13:33:02;24.40;99.90
21047;DHT22;10682;50.874;3.656;2022-08-19T13:35:50;24.40;99.90
21047;DHT22;10682;50.874;3.656;2022-08-19T13:38:22;24.30;99.90
21047;DHT22;10682;50.874;3.656;2022-08-19T13:40:51;24.10;99.90
21047;DHT22;10682;50.874;3.656;2022-08-19T13:43:21;23.90;99.90
21047;DHT22;10682;50.874;3.656;2022-08-19T13:45:54;23.80;99.90
21047;DHT22;10682;50.874;3.656;2022-08-19T13:48:25;23.80;99.90
21047;DHT22;10682;50.874;3.656;2022-08-19T13:50:54;23.80;99.90
21047;DHT22;10682;50.874;3.656;2022-08-19T13:53:27;23.80;99.90
21047;DHT22;10682;50.874;3.656;2022-08-19T13:55:54;23.80;99.90
21047;DHT22;10682;50.874;3.656;2022-08-19T13:58:21;23.60;99.90
21047;DHT22;10682;50.874;3.656;2022-08-19T14:00:49;23.50;99.90
21047;DHT22;10682;50.874;3.656;2022-08-19T14:03:16;23.50;99.90
21047;DHT22;10682;50.874;3.656;2022-08-19T14:05:43;23.50;99.90
21047;DHT22;10682;50.874;3.656;2022-08-19T14:08:10;23.40;99.90
21047;DHT22;10682;50.874;3.656;2022-08-19T14:10:38;23.50;99.90
21047;DHT22;10682;50.874;3.656;2022-08-19T14:13:05;23.80;99.90
21047;DHT22;10682;50.874;3.656;2022-08-19T14:15:32;24.10;99.90
21047;DHT22;10682;50.874;3.656;2022-08-19T14:17:59;24.00;99.90
21047;DHT22;10682;50.874;3.656;2022-08-19T14:20:27;24.20;99.90
21047;DHT22;10682;50.874;3.656;2022-08-19T14:22:55;24.50;99.90
21047;DHT22;10682;50.874;3.656;2022-08-19T14:25:25;24.70;99.90
21047;DHT22;10682;50.874;3.656;2022-08-19T14:27:55;25.00;99.90
21047;DHT22;10682;50.874;3.656;2022-08-19T14:30:29;25.20;99.90
21047;DHT22;10682;50.874;3.656;2022-08-19T14:32:59;25.30;99.90
21047;DHT22;10682;50.874;3.656;2022-08-19T14:35:29;25.30;99.90
21047;DHT22;10682;50.874;3.656;2022-08-19T14:37:57;25.20;99.90
21047;DHT22;10682;50.874;3.656;2022-08-19T14:40:27;25.40;99.90
21047;DHT22;10682;50.874;3.656;2022-08-19T14:42:58;25.20;99.90
21047;DHT22;10682;50.874;3.656;2022-08-19T14:45:36;25.10;99.90
21047;DHT22;10682;50.874;3.656;2022-08-19T14:48:08;25.20;99.90
21047;DHT22;10682;50.874;3.656;2022-08-19T14:50:44;25.30;99.90
21047;DHT22;10682;50.874;3.656;2022-08-19T14:53:11;25.40;99.90
21047;DHT22;10682;50.874;3.656;2022-08-19T14:55:45;25.40;99.90
21047;DHT22;10682;50.874;3.656;2022-08-19T14:58:13;25.40;99.90
21047;DHT22;10682;50.874;3.656;2022-08-19T15:00:57;25.20;99.90
21047;DHT22;10682;50.874;3.656;2022-08-19T15:03:25;25.00;99.90
21047;DHT22;10682;50.874;3.656;2022-08-19T15:05:53;24.90;99.90
21047;DHT22;10682;50.874;3.656;2022-08-19T15:08:20;24.70;99.90
21047;DHT22;10682;50.874;3.656;2022-08-19T15:10:52;24.70;99.90
21047;DHT22;10682;50.874;3.656;2022-08-19T15:13:19;24.70;99.90
21047;DHT22;10682;50.874;3.656;2022-08-19T15:15:47;24.80;99.90
21047;DHT22;10682;50.874;3.656;2022-08-19T15:18:14;25.00;99.90
21047;DHT22;10682;50.874;3.656;2022-08-19T15:20:42;25.20;99.90
21047;DHT22;10682;50.874;3.656;2022-08-19T15:23:13;25.40;99.90
21047;DHT22;10682;50.874;3.656;2022-08-19T15:25:42;25.50;99.90
21047;DHT22;10682;50.874;3.656;2022-08-19T15:28:10;25.50;99.90
21047;DHT22;10682;50.874;3.656;2022-08-19T15:30:39;25.20;99.90
21047;DHT22;10682;50.874;3.656;2022-08-19T15:33:07;25.20;99.90
21047;DHT22;10682;50.874;3.656;2022-08-19T15:35:34;25.20;99.90
21047;DHT22;10682;50.874;3.656;2022-08-19T15:38:01;25.30;99.90
21047;DHT22;10682;50.874;3.656;2022-08-19T15:40:28;25.40;99.90
21047;DHT22;10682;50.874;3.656;2022-08-19T15:42:55;25.40;99.90
21047;DHT22;10682;50.874;3.656;2022-08-19T15:45:24;25.40;99.90
21047;DHT22;10682;50.874;3.656;2022-08-19T15:47:59;25.40;99.90
21047;DHT22;10682;50.874;3.656;2022-08-19T15:50:28;25.30;99.90
21047;DHT22;10682;50.874;3.656;2022-08-19T15:53:01;25.40;99.90
21047;DHT22;10682;50.874;3.656;2022-08-19T15:55:32;25.40;99.90
21047;DHT22;10682;50.874;3.656;2022-08-19T15:58:04;25.30;99.90
21047;DHT22;10682;50.874;3.656;2022-08-19T16:01:00;25.20;99.90
21047;DHT22;10682;50.874;3.656;2022-08-19T16:03:50;25.10;99.90
21047;DHT22;10682;50.874;3.656;2022-08-19T16:06:53;25.10;99.90